Time;durP1;ratioP1;P1;durP2;ratioP2;P2;SDS_P1;SDS_P2;PMS_P1;PMS_P2;Temp;Humidity;BMP_temperature;BMP_pressure;BME280_temperature;BME280_humidity;BME280_pressure;Samples;Min_cycle;Max_cycle;Signal;HPM_P1;HPM_P2
2022/05/01 00:01:11;;;;;;;15.30;9.98;;;;;;;5.73;72.76;93859.72;5050874;28;20082;-39
2022/05/01 00:03:39;;;;;;;17.83;11.13;;;;;;;5.78;72.49;93839.75;5051454;28;20013;-40
2022/05/01 00:06:08;;;;;;;15.43;9.60;;;;;;;5.75;72.72;93859.97;5051351;28;20032;-40
2022/05/01 00:08:36;;;;;;;14.80;9.95;;;;;;;5.82;72.95;93864.16;5051115;28;20016;-39
2022/05/01 00:11:02;;;;;;;23.70;14.25;;;;;;;5.87;72.95;93866.88;5051350;28;20063;-40
2022/05/01 00:13:29;;;;;;;22.95;14.20;;;;;;;5.69;73.66;93870.22;5051333;28;20502;-40
2022/05/01 00:15:55;;;;;;;16.48;10.88;;;;;;;5.58;74.84;93870.28;5051075;28;20070;-41
2022/05/01 00:18:21;;;;;;;14.55;9.82;;;;;;;5.52;76.69;93871.56;5051191;28;20032;-40
2022/05/01 00:20:47;;;;;;;14.65;10.52;;;;;;;5.38;77.97;93863.16;5050938;28;20025;-39
2022/05/01 00:23:13;;;;;;;17.10;10.63;;;;;;;5.41;78.36;93877.06;5051087;28;20121;-39
2022/05/01 00:25:42;;;;;;;15.55;9.70;;;;;;;5.34;78.75;93878.34;5050897;28;20029;-40
2022/05/01 00:28:11;;;;;;;22.73;12.90;;;;;;;5.20;78.77;93880.13;5050890;28;20013;-40
2022/05/01 00:30:37;;;;;;;32.70;17.38;;;;;;;5.41;78.54;93880.56;5050728;28;20036;-39
2022/05/01 00:38:31;;;;;;;25.33;14.82;;;;;;;5.31;78.32;93873.88;5050707;28;20036;-40
2022/05/01 00:40:57;;;;;;;18.92;12.38;;;;;;;5.44;77.74;93887.00;5050565;28;20021;-39
2022/05/01 00:43:24;;;;;;;15.45;10.57;;;;;;;5.38;78.01;93887.03;5049980;28;20139;-39
2022/05/01 00:45:49;;;;;;;17.25;10.35;;;;;;;5.21;77.82;93883.63;5050505;28;20708;-40
2022/05/01 00:48:15;;;;;;;13.15;8.90;;;;;;;5.22;77.53;93876.88;5050358;28;20020;-39
2022/05/01 00:50:41;;;;;;;12.82;9.10;;;;;;;5.27;76.62;93874.16;5050748;28;20021;-40
2022/05/01 00:53:07;;;;;;;11.75;7.82;;;;;;;5.23;75.79;93861.97;5050265;28;20029;-39
2022/05/01 00:55:34;;;;;;;13.55;7.35;;;;;;;5.14;75.18;93856.78;5049178;28;20021;-39
2022/05/01 00:58:01;;;;;;;13.05;8.63;;;;;;;5.07;76.27;93851.81;5050217;28;20021;-41
2022/05/01 01:00:27;;;;;;;11.07;7.35;;;;;;;5.12;75.81;93854.53;5050300;28;20567;-41
2022/05/01 01:02:53;;;;;;;13.27;8.60;;;;;;;5.32;75.49;93853.47;5050557;28;20013;-42
2022/05/01 01:05:19;;;;;;;10.98;7.50;;;;;;;5.22;75.75;93844.03;5050553;28;20056;-40
2022/05/01 01:07:44;;;;;;;12.02;7.45;;;;;;;5.20;75.98;93833.59;5050504;28;20079;-41
2022/05/01 01:10:10;;;;;;;12.43;7.97;;;;;;;5.34;75.45;93843.50;5050459;28;20040;-41
2022/05/01 01:12:54;;;;;;;11.40;8.63;;;;;;;5.36;75.74;93832.03;5050007;28;20470;-44
2022/05/01 01:15:24;;;;;;;12.75;8.20;;;;;;;5.20;76.32;93824.63;5050497;28;20079;-40
2022/05/01 01:17:54;;;;;;;11.88;8.52;;;;;;;5.00;77.41;93817.50;5050035;28;20494;-40
2022/05/01 01:20:21;;;;;;;10.07;8.02;;;;;;;5.05;78.21;93826.94;5050370;28;20651;-39
2022/05/01 01:22:47;;;;;;;13.05;8.35;;;;;;;4.99;78.19;93831.69;5050357;28;20025;-40
2022/05/01 01:25:14;;;;;;;12.35;8.65;;;;;;;4.99;78.62;93826.22;5048830;28;20552;-40
2022/05/01 01:27:40;;;;;;;12.93;8.30;;;;;;;4.90;78.75;93802.63;5050274;28;20021;-40
2022/05/01 01:32:52;;;;;;;12.52;8.98;;;;;;;4.89;78.31;93817.56;5051840;28;20031;-41
2022/05/01 01:35:22;;;;;;;13.32;8.85;;;;;;;4.86;78.37;93812.34;5054066;28;20025;-40
2022/05/01 01:37:49;;;;;;;12.13;8.18;;;;;;;4.86;77.75;93806.88;5053967;28;20021;-41
2022/05/01 01:40:19;;;;;;;9.05;6.85;;;;;;;4.81;77.20;93804.94;5053883;28;20560;-40
2022/05/01 01:42:46;;;;;;;10.90;7.18;;;;;;;4.79;76.82;93807.41;5052535;28;20040;-40
2022/05/01 01:45:12;;;;;;;10.32;7.20;;;;;;;4.69;77.06;93812.41;5053041;28;20025;-41
2022/05/01 01:47:37;;;;;;;7.72;6.70;;;;;;;4.61;78.03;93817.63;5052565;28;20544;-40
2022/05/01 01:50:04;;;;;;;10.18;7.10;;;;;;;4.53;79.52;93813.94;5053747;28;20063;-41
2022/05/01 01:52:30;;;;;;;11.73;7.07;;;;;;;4.45;80.22;93825.88;5053990;28;20035;-40
2022/05/01 01:54:55;;;;;;;8.70;5.97;;;;;;;4.46;79.89;93814.44;5053603;28;20021;-40
2022/05/01 01:57:21;;;;;;;10.35;6.68;;;;;;;4.53;79.02;93811.19;5053829;28;20036;-41
2022/05/01 01:59:46;;;;;;;9.45;7.13;;;;;;;4.28;79.08;93806.03;5053805;28;20017;-40
2022/05/01 02:02:11;;;;;;;7.75;6.47;;;;;;;4.21;79.50;93799.09;5053811;28;20017;-40
2022/05/01 02:04:37;;;;;;;8.48;6.38;;;;;;;4.34;80.12;93802.06;5053444;28;20044;-46
2022/05/01 02:07:02;;;;;;;9.52;6.68;;;;;;;4.34;80.09;93788.38;5053724;28;20028;-46
2022/05/01 02:09:30;;;;;;;9.32;7.78;;;;;;;4.31;80.68;93794.13;5053237;28;20025;-40
2022/05/01 02:11:57;;;;;;;12.85;7.13;;;;;;;4.44;78.92;93784.13;5053232;28;20025;-42
2022/05/01 02:14:22;;;;;;;16.45;9.23;;;;;;;4.55;78.08;93792.31;5053610;28;20049;-42
2022/05/01 02:16:48;;;;;;;12.82;9.10;;;;;;;4.67;76.97;93789.53;5053494;28;20025;-44
2022/05/01 02:19:14;;;;;;;11.85;8.93;;;;;;;4.55;76.54;93775.91;5053184;28;20021;-41
2022/05/01 02:21:40;;;;;;;10.65;7.65;;;;;;;4.69;76.97;93792.50;5053533;28;20021;-40
2022/05/01 02:24:09;;;;;;;12.65;8.30;;;;;;;4.68;77.10;93791.03;5053356;28;20025;-43
2022/05/01 02:26:35;;;;;;;14.00;8.35;;;;;;;4.76;76.09;93800.22;5053290;28;20049;-46
2022/05/01 02:29:02;;;;;;;13.10;9.05;;;;;;;4.68;76.91;93804.72;5053011;28;20037;-45
2022/05/01 02:31:28;;;;;;;15.82;10.73;;;;;;;4.74;76.86;93800.72;5052877;28;20033;-44
2022/05/01 02:33:54;;;;;;;28.95;17.13;;;;;;;4.79;77.24;93796.44;5052489;28;20032;-47
2022/05/01 02:36:19;;;;;;;24.90;15.05;;;;;;;4.71;77.70;93790.03;5052890;28;20518;-45
2022/05/01 02:38:46;;;;;;;15.73;9.70;;;;;;;4.63;77.79;93789.06;5052748;28;20032;-45
2022/05/01 02:41:12;;;;;;;13.23;9.10;;;;;;;4.50;78.80;93779.38;5052676;28;20029;-38
2022/05/01 02:43:38;;;;;;;15.63;11.65;;;;;;;4.22;79.84;93778.69;5052602;28;20060;-40
2022/05/01 02:46:03;;;;;;;12.32;9.25;;;;;;;4.21;79.68;93779.97;5052671;28;20406;-42
2022/05/01 02:48:29;;;;;;;14.98;9.02;;;;;;;4.33;79.43;93784.16;5052710;28;20021;-40
2022/05/01 02:50:54;;;;;;;12.73;8.48;;;;;;;4.20;79.14;93770.25;5052676;28;20086;-42
2022/05/01 02:53:20;;;;;;;12.35;8.40;;;;;;;4.35;79.18;93787.13;5052572;28;20102;-41
2022/05/01 02:55:45;;;;;;;14.02;9.90;;;;;;;4.37;79.06;93789.38;5052820;28;20048;-43
2022/05/01 02:58:11;;;;;;;15.05;10.13;;;;;;;4.37;78.31;93797.59;5052440;28;20403;-42
2022/05/01 03:00:36;;;;;;;11.93;9.85;;;;;;;4.23;77.30;93796.59;5052738;28;20551;-37
2022/05/01 03:03:02;;;;;;;15.02;8.77;;;;;;;3.93;78.05;93797.63;5052681;28;20020;-37
2022/05/01 03:05:28;;;;;;;14.85;8.38;;;;;;;3.85;78.65;93797.38;5052638;28;20028;-37
2022/05/01 03:07:55;;;;;;;16.13;8.50;;;;;;;3.93;79.05;93792.16;5052114;28;20501;-37
2022/05/01 03:10:22;;;;;;;11.35;7.78;;;;;;;3.84;78.08;93802.09;5052557;28;20033;-37
2022/05/01 03:12:47;;;;;;;21.45;10.88;;;;;;;3.88;77.81;93801.13;5052541;28;20107;-37
2022/05/01 03:15:13;;;;;;;15.75;7.68;;;;;;;3.93;77.56;93800.34;5052150;28;20056;-37
2022/05/01 03:23:07;;;;;;;15.65;9.35;;;;;;;3.96;78.50;93793.91;5052313;28;20078;-37
2022/05/01 03:25:33;;;;;;;22.70;12.50;;;;;;;3.96;79.02;93788.44;5052031;28;20100;-37
2022/05/01 03:27:58;;;;;;;22.13;13.38;;;;;;;4.17;78.27;93797.84;5052192;28;20021;-37
2022/05/01 03:30:24;;;;;;;21.30;11.63;;;;;;;4.18;77.36;93793.88;5051844;28;20060;-37
2022/05/01 03:32:50;;;;;;;21.10;11.23;;;;;;;4.24;76.37;93800.09;5051875;28;20021;-38
2022/05/01 03:35:17;;;;;;;17.38;11.13;;;;;;;4.30;76.88;93804.31;5051736;28;20017;-40
2022/05/01 03:37:43;;;;;;;16.08;10.18;;;;;;;4.32;76.55;93809.25;5052095;28;20032;-41
2022/05/01 03:40:14;;;;;;;16.98;10.70;;;;;;;4.33;75.64;93808.03;5051715;28;20131;-41
2022/05/01 03:42:39;;;;;;;25.55;17.88;;;;;;;4.12;76.31;93806.78;5051434;28;20017;-38
2022/05/01 03:45:05;;;;;;;29.08;19.05;;;;;;;4.25;76.58;93807.03;5051269;28;20482;-38
2022/05/01 03:47:32;;;;;;;26.27;18.60;;;;;;;4.31;76.67;93808.50;5051817;28;20099;-38
2022/05/01 03:49:58;;;;;;;25.05;16.45;;;;;;;4.21;77.44;93803.81;5051797;28;20457;-38
2022/05/01 03:52:23;;;;;;;21.75;15.68;;;;;;;4.30;78.42;93817.97;5051719;28;20099;-37
2022/05/01 03:54:49;;;;;;;25.48;16.92;;;;;;;4.31;78.48;93816.72;5051006;28;20106;-38
2022/05/01 03:57:15;;;;;;;18.17;12.90;;;;;;;4.20;79.30;93816.72;5050873;28;20033;-38
2022/05/01 03:59:40;;;;;;;18.60;12.85;;;;;;;4.26;79.56;93822.94;5051313;28;20049;-37
2022/05/01 04:02:06;;;;;;;18.35;13.40;;;;;;;4.32;79.85;93829.16;5051562;28;20021;-37
2022/05/01 04:04:31;;;;;;;19.13;12.88;;;;;;;4.27;80.20;93824.41;5043181;28;20041;-38
2022/05/01 04:06:57;;;;;;;23.67;12.80;;;;;;;4.32;80.12;93825.66;5051187;28;20036;-38
2022/05/01 04:09:24;;;;;;;24.08;14.23;;;;;;;4.51;79.51;93837.56;5051438;28;20029;-39
2022/05/01 04:11:50;;;;;;;91.28;44.03;;;;;;;4.56;78.46;93845.75;5051402;28;20478;-38
2022/05/01 04:14:15;;;;;;;34.60;19.23;;;;;;;4.75;77.13;93839.72;5051048;28;20082;-38
2022/05/01 04:16:41;;;;;;;27.90;16.60;;;;;;;4.78;75.80;93846.94;5051244;28;20025;-38
2022/05/01 04:19:07;;;;;;;31.48;17.65;;;;;;;5.03;75.21;93835.66;5051292;28;20032;-38
2022/05/01 04:21:33;;;;;;;30.25;18.73;;;;;;;5.12;75.54;93845.59;5050961;28;20122;-38
2022/05/01 04:23:58;;;;;;;29.70;18.80;;;;;;;5.36;75.51;93854.69;5050833;28;20079;-40
2022/05/01 04:26:23;;;;;;;23.67;14.80;;;;;;;5.72;75.18;93857.47;5050852;28;20028;-41
2022/05/01 04:31:33;;;;;;;18.30;11.73;;;;;;;6.53;71.98;93856.66;5051080;28;20067;-41
2022/05/01 04:33:58;;;;;;;17.15;11.27;;;;;;;6.65;72.68;93852.53;5050654;28;20028;-41
2022/05/01 04:36:25;;;;;;;17.25;11.73;;;;;;;6.99;71.39;93859.19;5050605;28;20036;-40
2022/05/01 04:38:50;;;;;;;26.35;19.23;;;;;;;6.95;71.82;93861.50;5050516;28;20112;-41
2022/05/01 04:41:18;;;;;;;15.70;11.23;;;;;;;6.90;72.78;93865.03;5050209;28;20036;-41
2022/05/01 04:43:44;;;;;;;24.88;17.55;;;;;;;6.78;72.85;93863.63;5050569;28;20064;-41
2022/05/01 04:46:09;;;;;;;25.35;19.52;;;;;;;6.96;73.01;93868.44;5050806;28;20104;-41
2022/05/01 04:48:35;;;;;;;20.38;14.50;;;;;;;7.24;72.74;93868.88;5050404;28;20449;-40
2022/05/01 04:51:00;;;;;;;25.73;16.42;;;;;;;7.52;72.41;93865.81;5050484;28;20032;-40
2022/05/01 04:53:26;;;;;;;29.15;18.52;;;;;;;7.77;71.76;93859.00;5050666;28;20029;-40
2022/05/01 04:55:54;;;;;;;21.50;15.75;;;;;;;8.07;70.21;93869.81;5049867;28;20417;-39
2022/05/01 04:58:20;;;;;;;13.73;11.00;;;;;;;8.31;69.86;93867.72;5049978;28;20124;-40
2022/05/01 05:00:46;;;;;;;12.32;8.07;;;;;;;8.34;69.56;93866.66;5049843;28;20044;-40
2022/05/01 05:03:12;;;;;;;10.27;8.45;;;;;;;8.29;69.62;93864.00;5049812;28;20479;-40
2022/05/01 05:05:38;;;;;;;14.52;11.02;;;;;;;8.29;70.30;93859.22;5050049;28;20021;-39
2022/05/01 05:10:49;;;;;;;10.32;9.25;;;;;;;8.49;70.16;93866.16;5043603;28;20036;-39
2022/05/01 05:13:23;;;;;;;10.38;8.75;;;;;;;8.88;69.07;93869.00;5050018;28;20726;-40
2022/05/01 05:15:50;;;;;;;7.18;6.32;;;;;;;9.52;67.44;93866.81;5050133;28;20383;-40
2022/05/01 05:18:15;;;;;;;10.73;6.78;;;;;;;10.12;65.48;93853.00;5049345;28;20040;-39
2022/05/01 05:20:41;;;;;;;11.30;7.93;;;;;;;10.63;64.14;93850.56;5049592;28;20033;-40
2022/05/01 05:23:06;;;;;;;8.43;7.53;;;;;;;11.01;63.41;93851.59;5048272;28;20020;-40
2022/05/01 05:25:32;;;;;;;11.20;8.13;;;;;;;11.20;63.00;93837.53;5049853;28;20028;-39
2022/05/01 05:27:57;;;;;;;9.05;7.70;;;;;;;11.49;62.92;93830.69;5050094;28;20540;-40
2022/05/01 05:30:23;;;;;;;8.82;7.82;;;;;;;12.16;61.67;93844.09;5049911;28;20032;-40
2022/05/01 05:32:49;;;;;;;8.30;7.00;;;;;;;13.06;58.69;93842.00;5049510;28;20078;-39
2022/05/01 05:35:15;;;;;;;8.38;7.03;;;;;;;13.43;56.61;93843.94;5049240;28;20029;-40
2022/05/01 05:37:40;;;;;;;7.43;6.63;;;;;;;13.78;56.23;93850.53;5050056;28;20108;-39
2022/05/01 05:40:06;;;;;;;8.02;7.22;;;;;;;14.18;55.71;93848.53;5050084;28;20166;-39
2022/05/01 05:42:32;;;;;;;31.25;9.93;;;;;;;14.44;54.48;93850.81;5045071;28;20068;-40
2022/05/01 05:44:59;;;;;;;10.93;8.02;;;;;;;14.43;53.37;93855.63;5049649;28;20522;-39
2022/05/01 05:47:24;;;;;;;15.95;11.48;;;;;;;14.18;53.77;93857.59;5049718;28;20509;-39
2022/05/01 05:49:50;;;;;;;11.10;7.80;;;;;;;13.75;55.59;93860.72;5050117;28;20048;-39
2022/05/01 05:52:15;;;;;;;10.77;7.15;;;;;;;13.88;56.21;93852.13;5049749;28;20734;-39
2022/05/01 05:54:40;;;;;;;8.52;6.97;;;;;;;13.67;57.00;93854.44;5049429;28;20040;-39
2022/05/01 05:57:06;;;;;;;8.50;6.55;;;;;;;13.69;57.22;93852.59;5049672;28;20517;-39
2022/05/01 05:59:31;;;;;;;9.27;7.22;;;;;;;13.83;58.03;93849.59;5049982;28;20078;-40
2022/05/01 06:01:57;;;;;;;10.93;7.97;;;;;;;14.01;57.98;93849.13;5049616;28;20036;-39
2022/05/01 06:04:22;;;;;;;22.25;8.07;;;;;;;13.85;58.00;93844.94;5049879;28;20501;-40
2022/05/01 06:06:48;;;;;;;8.32;7.07;;;;;;;14.28;56.27;93832.72;5048644;28;20060;-40
2022/05/01 06:09:13;;;;;;;8.05;7.25;;;;;;;14.50;56.26;93840.22;5049124;28;20033;-40
2022/05/01 06:11:39;;;;;;;8.27;7.00;;;;;;;15.02;53.67;93836.31;5049556;28;20036;-39
2022/05/01 06:14:04;;;;;;;7.45;6.40;;;;;;;15.19;54.15;93836.38;5049831;28;20025;-40
2022/05/01 06:16:31;;;;;;;7.75;6.68;;;;;;;15.44;53.40;93833.53;5049845;28;20020;-40
2022/05/01 06:18:58;;;;;;;8.02;6.30;;;;;;;15.62;51.98;93817.59;5050344;28;20032;-42
2022/05/01 06:21:24;;;;;;;11.55;6.60;;;;;;;16.46;51.99;93835.50;5052869;28;20029;-49
2022/05/01 06:23:49;;;;;;;8.55;5.70;;;;;;;16.60;48.38;93831.06;5052183;28;20028;-43
2022/05/01 06:26:15;;;;;;;6.97;6.28;;;;;;;16.25;49.01;93835.22;5053039;28;20033;-41
2022/05/01 06:28:40;;;;;;;6.65;6.05;;;;;;;16.28;48.49;93839.66;5052137;28;20043;-41
2022/05/01 06:31:06;;;;;;;5.55;5.05;;;;;;;16.65;46.81;93837.69;5052802;28;20091;-41
2022/05/01 06:33:34;;;;;;;6.80;5.13;;;;;;;17.40;46.86;93830.19;5053273;28;20028;-42
2022/05/01 06:35:59;;;;;;;6.78;5.60;;;;;;;17.71;45.02;93833.94;5053101;28;20033;-41
2022/05/01 06:38:25;;;;;;;5.43;4.80;;;;;;;17.97;44.22;93827.47;5052792;28;20612;-43
2022/05/01 06:40:50;;;;;;;7.05;5.35;;;;;;;18.66;42.50;93830.34;5052772;28;20112;-43
2022/05/01 06:43:17;;;;;;;5.40;4.75;;;;;;;18.93;42.69;93824.50;5052258;28;20060;-43
2022/05/01 06:45:43;;;;;;;4.30;3.90;;;;;;;19.37;39.74;93824.78;5052636;28;20029;-43
2022/05/01 06:48:10;;;;;;;4.95;4.35;;;;;;;19.37;39.74;93824.78;5052183;28;20112;-43
2022/05/01 06:50:36;;;;;;;4.78;4.35;;;;;;;19.21;41.03;93826.44;5052597;28;20449;-41
2022/05/01 06:53:01;;;;;;;5.43;4.38;;;;;;;19.34;40.58;93825.97;5051995;28;20116;-41
2022/05/01 06:55:28;;;;;;;6.82;4.78;;;;;;;20.12;38.88;93832.53;5051675;28;20033;-43
2022/05/01 06:57:53;;;;;;;4.90;4.35;;;;;;;20.55;38.77;93827.59;5051912;28;20743;-41
2022/05/01 07:00:22;;;;;;;5.25;3.63;;;;;;;20.40;37.52;93829.47;5051568;28;20021;-41
2022/05/01 07:02:49;;;;;;;5.15;4.53;;;;;;;19.83;38.91;93823.59;5051750;28;20100;-41
2022/05/01 07:05:15;;;;;;;4.40;4.03;;;;;;;19.19;39.60;93820.00;5052068;28;20025;-41
2022/05/01 07:07:41;;;;;;;4.75;4.35;;;;;;;18.65;40.49;93820.47;5052309;28;20029;-39
2022/05/01 07:10:08;;;;;;;5.85;4.22;;;;;;;18.51;41.88;93815.97;5051733;28;20032;-40
2022/05/01 07:12:34;;;;;;;5.60;5.10;;;;;;;19.17;42.84;93817.78;5084443;28;20108;-40
2022/05/01 07:14:59;;;;;;;3.33;3.13;;;;;;;19.57;37.70;93831.00;5052458;28;20028;-39
2022/05/01 07:17:25;;;;;;;4.32;3.78;;;;;;;19.78;37.92;93831.00;5051870;28;20579;-44
2022/05/01 07:19:51;;;;;;;4.50;4.10;;;;;;;19.71;37.68;93829.13;5050907;28;20566;-42
2022/05/01 07:22:16;;;;;;;4.65;3.72;;;;;;;19.74;39.01;93827.19;5052002;28;20060;-43
2022/05/01 07:24:42;;;;;;;5.32;3.30;;;;;;;20.21;36.57;93826.09;5052287;28;20060;-49
2022/05/01 07:27:07;;;;;;;4.55;3.75;;;;;;;20.72;36.98;93828.00;5051659;28;20028;-42
2022/05/01 07:29:33;;;;;;;3.30;3.00;;;;;;;21.91;35.08;93826.81;5051721;28;20641;-43
2022/05/01 07:31:58;;;;;;;3.70;3.40;;;;;;;22.69;32.63;93822.13;5050661;28;20486;-45
2022/05/01 07:34:23;;;;;;;3.42;2.45;;;;;;;23.57;30.58;93817.69;5049372;28;20457;-44
2022/05/01 07:36:49;;;;;;;2.42;2.22;;;;;;;23.69;28.72;93826.78;5045395;28;20469;-43
2022/05/01 07:39:14;;;;;;;4.72;2.85;;;;;;;23.38;31.36;93823.00;5048813;28;20037;-40
2022/05/01 07:41:41;;;;;;;4.63;2.72;;;;;;;23.93;30.77;93824.47;5050605;28;20188;-43
2022/05/01 07:44:08;;;;;;;3.00;2.70;;;;;;;24.05;29.38;93817.38;5050477;28;20100;-43
2022/05/01 07:46:34;;;;;;;5.45;2.65;;;;;;;23.82;29.75;93820.41;5082874;28;20107;-43
2022/05/01 07:49:00;;;;;;;3.25;2.70;;;;;;;24.26;28.77;93819.09;5048715;28;20100;-43
2022/05/01 07:51:25;;;;;;;6.53;3.47;;;;;;;24.53;30.55;93826.75;5050733;28;20021;-43
2022/05/01 07:53:53;;;;;;;4.97;3.30;;;;;;;25.18;27.53;93820.00;5050749;28;20024;-44
2022/05/01 07:56:19;;;;;;;6.00;2.60;;;;;;;25.18;27.38;93827.72;5034432;28;20510;-43
2022/05/01 07:58:44;;;;;;;8.57;2.58;;;;;;;25.09;27.56;93818.16;5040666;28;20110;-45
2022/05/01 08:01:10;;;;;;;5.68;3.78;;;;;;;25.46;27.87;93823.38;5051490;28;20499;-46
2022/05/01 08:06:22;;;;;;;3.83;2.47;;;;;;;25.75;24.84;93823.25;5031592;28;20047;-42
2022/05/01 08:08:48;;;;;;;4.60;2.53;;;;;;;24.33;26.70;93823.69;5038270;28;20021;-44
2022/05/01 08:11:13;;;;;;;7.90;2.55;;;;;;;24.80;27.77;93824.56;5049912;28;20031;-42
2022/05/01 08:13:39;;;;;;;2.72;2.47;;;;;;;23.90;27.18;93823.66;5048979;28;20024;-40
2022/05/01 08:16:04;;;;;;;3.83;2.38;;;;;;;23.94;27.42;93821.03;5042235;28;20075;-40
2022/05/01 08:21:14;;;;;;;2.28;2.03;;;;;;;23.39;27.06;93818.84;5049222;28;20040;-40
2022/05/01 08:23:41;;;;;;;2.22;1.83;;;;;;;24.17;28.58;93810.88;5048572;28;20021;-39
2022/05/01 08:26:10;;;;;;;6.65;2.30;;;;;;;23.44;27.81;93806.41;5047459;28;20127;-40
2022/05/01 08:28:37;;;;;;;;;;;;;;;22.76;28.35;93812.63;5050178;28;20017;-40
2022/05/01 08:31:03;;;;;;;3.20;2.90;;;;;;;21.87;30.66;93804.09;5050818;28;19915;-39
2022/05/01 08:33:29;;;;;;;10.20;3.63;;;;;;;20.57;31.43;93806.00;5050715;28;20465;-39
2022/05/01 08:35:54;;;;;;;4.97;3.17;;;;;;;19.75;33.55;93809.06;5050914;28;20047;-40
2022/05/01 08:38:23;;;;;;;3.17;2.88;;;;;;;19.56;35.09;93805.03;5047902;28;20493;-39
2022/05/01 08:40:50;;;;;;;4.97;2.93;;;;;;;19.83;33.86;93803.97;5041357;28;20029;-39
2022/05/01 08:43:17;;;;;;;5.53;2.67;;;;;;;20.87;32.37;93788.25;5048187;28;20041;-40
2022/05/01 08:46:09;;;;;;;3.38;2.53;;;;;;;21.64;31.43;93792.84;5046836;28;20021;-39
2022/05/01 08:48:37;;;;;;;3.58;2.85;;;;;;;22.63;31.18;93792.91;5036123;28;20041;-40
2022/05/01 08:51:04;;;;;;;5.07;2.45;;;;;;;24.23;27.89;93780.88;5050324;28;20025;-40
2022/05/01 08:53:30;;;;;;;3.55;2.25;;;;;;;25.52;23.80;93784.06;5049260;28;20025;-40
2022/05/01 08:55:56;;;;;;;3.28;2.00;;;;;;;23.41;26.53;93790.78;5045273;28;20025;-39
2022/05/01 08:58:24;;;;;;;2.70;2.50;;;;;;;22.66;27.58;93788.84;5049288;28;20037;-39
2022/05/01 09:00:51;;;;;;;1.80;1.67;;;;;;;23.15;26.32;93785.19;5048538;28;20037;-39
2022/05/01 09:03:17;;;;;;;2.05;1.85;;;;;;;23.18;27.28;93780.38;5043729;28;20020;-40
2022/05/01 09:05:43;;;;;;;2.38;1.88;;;;;;;23.77;26.53;93790.56;5048131;28;20033;-40
2022/05/01 09:08:09;;;;;;;1.95;1.77;;;;;;;22.94;27.84;93774.22;5049277;28;20052;-40
2022/05/01 09:10:34;;;;;;;3.78;2.33;;;;;;;21.99;29.38;93779.47;5050408;28;20456;-39
2022/05/01 09:13:00;;;;;;;2.58;2.38;;;;;;;21.61;30.59;93777.94;5050457;28;20025;-40
2022/05/01 09:15:34;;;;;;;2.45;2.22;;;;;;;21.42;29.99;93781.03;5050221;28;20083;-38
2022/05/01 09:18:04;;;;;;;2.22;2.03;;;;;;;20.85;31.04;93778.97;5049846;28;20028;-38
2022/05/01 09:20:34;;;;;;;2.15;1.95;;;;;;;21.47;31.36;93773.56;5050036;28;20422;-39
2022/05/01 09:23:00;;;;;;;1.70;1.60;;;;;;;21.85;29.90;93773.03;5049187;28;20443;-39
2022/05/01 09:25:27;;;;;;;3.65;2.10;;;;;;;21.80;30.44;93765.69;5050192;28;20021;-39
2022/05/01 09:27:57;;;;;;;2.63;1.80;;;;;;;21.93;30.10;93761.50;5050243;28;20025;-39
2022/05/01 09:30:31;;;;;;;2.20;2.00;;;;;;;21.26;29.20;93759.69;5049812;28;20029;-38
2022/05/01 09:32:57;;;;;;;2.03;1.80;;;;;;;21.16;28.61;93762.63;5049782;28;20025;-39
2022/05/01 09:35:23;;;;;;;2.92;2.10;;;;;;;21.73;31.06;93752.63;5050203;28;20033;-38
2022/05/01 09:37:48;;;;;;;2.00;1.80;;;;;;;21.50;28.88;93758.31;5049835;28;20718;-39
2022/05/01 09:40:29;;;;;;;4.38;2.40;;;;;;;20.89;30.21;93759.56;5049930;28;20025;-39
2022/05/01 09:42:55;;;;;;;3.20;2.20;;;;;;;20.05;31.11;93761.31;5049358;28;20053;-38
2022/05/01 09:45:29;;;;;;;2.97;1.83;;;;;;;19.71;31.28;93750.69;5045704;28;20147;-38
2022/05/01 09:47:54;;;;;;;4.82;2.40;;;;;;;19.80;32.06;93749.13;5042504;28;20104;-38
2022/05/01 09:50:38;;;;;;;7.68;2.42;;;;;;;21.19;30.35;93744.56;5040384;28;20147;-39
2022/05/01 09:53:03;;;;;;;3.55;2.40;;;;;;;22.12;29.82;93753.50;5041234;28;20086;-38
2022/05/01 09:55:29;;;;;;;5.75;2.35;;;;;;;21.73;29.91;93747.00;5049166;28;20037;-38
2022/05/01 09:58:05;;;;;;;2.75;1.92;;;;;;;20.72;30.17;93740.28;5052258;28;20029;-39
2022/05/01 10:00:38;;;;;;;3.80;2.53;;;;;;;20.13;32.35;93750.63;5053689;28;20040;-39
2022/05/01 10:03:31;;;;;;;8.93;2.10;;;;;;;21.12;32.89;93735.03;5053651;28;20017;-38
2022/05/01 10:05:58;;;;;;;4.68;2.60;;;;;;;22.90;29.53;93731.03;5053606;28;20021;-38
2022/05/01 10:08:24;;;;;;;5.32;2.42;;;;;;;23.79;29.01;93720.16;5043862;28;20021;-38
2022/05/01 10:10:55;;;;;;;5.13;1.50;;;;;;;24.45;26.17;93725.47;5051436;28;20402;-39
2022/05/01 10:13:23;;;;;;;2.65;1.58;;;;;;;23.11;26.95;93723.00;5034958;28;20649;-39
2022/05/01 10:15:48;;;;;;;3.10;2.30;;;;;;;21.43;28.38;93719.97;5033393;28;20113;-39
2022/05/01 10:18:14;;;;;;;6.20;2.70;;;;;;;20.71;29.66;93719.88;5049518;28;20017;-38
2022/05/01 10:21:15;;;;;;;4.05;2.53;;;;;;;20.11;30.27;93722.47;5036818;28;20032;-38
2022/05/01 10:23:41;;;;;;;16.75;4.75;;;;;;;19.79;31.84;93719.66;5033611;28;20032;-39
2022/05/01 10:26:20;;;;;;;2.40;2.20;;;;;;;19.33;31.54;93723.69;5033255;28;20414;-39
2022/05/01 10:29:12;;;;;;;16.33;5.85;;;;;;;19.26;31.61;93718.25;5037681;28;20102;-38
2022/05/01 10:32:22;;;;;;;105.88;23.90;;;;;;;18.99;33.25;93718.59;5033403;28;20052;-38
2022/05/01 10:35:08;;;;;;;3.33;2.83;;;;;;;19.00;31.78;93717.25;5033360;28;20102;-39
2022/05/01 10:37:54;;;;;;;21.60;5.97;;;;;;;19.32;32.21;93702.59;5033278;28;20096;-38
2022/05/01 10:40:21;;;;;;;4.10;2.22;;;;;;;19.76;29.83;93709.66;5032925;28;20487;-38
2022/05/01 10:42:48;;;;;;;15.93;2.60;;;;;;;19.93;31.32;93686.94;5045806;28;20056;-38
2022/05/01 10:45:23;;;;;;;8.20;2.47;;;;;;;20.09;29.25;93694.31;5052216;28;20033;-38
2022/05/01 10:47:53;;;;;;;7.07;3.15;;;;;;;19.79;30.80;93698.00;5052734;28;20025;-38
2022/05/01 10:50:26;;;;;;;2.30;2.00;;;;;;;20.22;29.00;93687.41;5051948;28;20025;-39
2022/05/01 10:53:03;;;;;;;6.90;1.98;;;;;;;20.33;30.31;93690.22;5052671;28;20029;-37
2022/05/01 10:55:40;;;;;;;3.03;1.92;;;;;;;20.89;30.03;93676.09;5051417;28;20116;-39
2022/05/01 10:58:21;;;;;;;5.05;1.98;;;;;;;22.23;28.07;93678.84;5052863;28;20021;-37
2022/05/01 11:00:47;;;;;;;6.93;2.60;;;;;;;23.25;27.04;93669.50;5049777;28;20545;-38
2022/05/01 11:03:32;;;;;;;2.97;1.30;;;;;;;24.12;23.48;93676.63;5032532;28;20526;-38
2022/05/01 11:06:00;;;;;;;2.00;1.40;;;;;;;23.66;23.77;93670.16;5032766;28;20053;-38
2022/05/01 11:08:29;;;;;;;2.33;1.47;;;;;;;23.43;24.32;93670.44;5032576;28;20022;-38
2022/05/01 11:10:58;;;;;;;1.73;1.50;;;;;;;22.86;25.53;93669.59;5034096;28;20486;-38
2022/05/01 11:13:33;;;;;;;3.38;1.40;;;;;;;22.46;26.09;93668.16;5041007;28;20026;-38
2022/05/01 11:15:59;;;;;;;9.20;2.80;;;;;;;22.31;28.95;93663.13;5032585;28;20032;-38
2022/05/01 11:18:50;;;;;;;1.70;1.60;;;;;;;22.00;30.04;93667.72;5045575;28;20086;-38
2022/05/01 11:21:24;;;;;;;38.45;5.45;;;;;;;22.11;30.07;93655.69;5027158;28;20037;-38
2022/05/01 11:24:04;;;;;;;2.38;1.58;;;;;;;21.55;26.91;93667.31;5032659;28;20029;-38
2022/05/01 11:26:29;;;;;;;4.28;1.65;;;;;;;20.76;26.90;93665.47;5042995;28;20022;-38
2022/05/01 11:28:57;;;;;;;1.50;1.40;;;;;;;20.79;29.24;93660.72;5052133;28;20071;-38
2022/05/01 11:31:37;;;;;;;2.47;1.77;;;;;;;20.29;27.67;93667.53;5084310;28;20032;-38
2022/05/01 11:34:24;;;;;;;3.33;1.52;;;;;;;19.37;28.19;93672.84;5051929;28;20032;-38
2022/05/01 11:36:53;;;;;;;2.63;1.58;;;;;;;19.36;28.45;93652.50;5050714;28;20025;-38
2022/05/01 11:39:22;;;;;;;10.35;1.70;;;;;;;19.70;30.32;93659.59;5032832;28;20137;-38
2022/05/01 11:42:00;;;;;;;;;;;;;;;19.89;28.06;93659.38;5045587;28;20410;-38
2022/05/01 11:44:26;;;;;;;2.83;1.70;;;;;;;19.92;27.73;93657.44;5048203;28;19920;-38
2022/05/01 11:46:52;;;;;;;2.72;1.58;;;;;;;20.05;28.58;93649.19;5048880;28;20524;-38
2022/05/01 11:49:18;;;;;;;4.55;1.60;;;;;;;20.33;30.35;93645.38;5043689;28;20025;-38
2022/05/01 11:51:45;;;;;;;1.88;1.52;;;;;;;20.50;28.52;93641.47;5050732;28;20021;-38
2022/05/01 11:54:16;;;;;;;2.55;1.30;;;;;;;20.11;28.10;93640.41;5047139;28;20163;-38
2022/05/01 12:02:26;;;;;;;1.77;1.45;;;;;;;18.95;29.20;93637.16;5045241;28;20091;-38
2022/05/01 12:04:59;;;;;;;1.90;1.80;;;;;;;18.84;30.37;93630.16;5032785;28;20029;-38